sensor_id;sensor_type;location;lat;lon;timestamp;temperature;humidity
14317;DHT22;7242;50.858;6.586;2022-12-10T00:01:31;2.80;99.90
14317;DHT22;7242;50.858;6.586;2022-12-10T00:04:32;2.60;99.90
14317;DHT22;7242;50.858;6.586;2022-12-10T00:10:34;2.60;99.90
14317;DHT22;7242;50.858;6.586;2022-12-10T00:13:39;2.70;99.90
14317;DHT22;7242;50.858;6.586;2022-12-10T00:22:43;2.70;99.90
14317;DHT22;7242;50.858;6.586;2022-12-10T00:34:48;4.00;99.90
14317;DHT22;7242;50.858;6.586;2022-12-10T00:49:54;2.20;99.90
14317;DHT22;7242;50.858;6.586;2022-12-10T00:52:55;2.00;99.90
14317;DHT22;7242;50.858;6.586;2022-12-10T01:05:02;1.90;99.90
14317;DHT22;7242;50.858;6.586;2022-12-10T01:08:05;1.90;99.90
14317;DHT22;7242;50.858;6.586;2022-12-10T01:11:06;1.90;99.90
14317;DHT22;7242;50.858;6.586;2022-12-10T01:14:10;1.80;99.90
14317;DHT22;7242;50.858;6.586;2022-12-10T01:41:42;1.60;99.90
14317;DHT22;7242;50.858;6.586;2022-12-10T01:57:04;1.40;99.90
14317;DHT22;7242;50.858;6.586;2022-12-10T02:00:06;1.50;99.90
14317;DHT22;7242;50.858;6.586;2022-12-10T02:16:16;1.20;99.90
14317;DHT22;7242;50.858;6.586;2022-12-10T02:19:57;1.10;99.90
14317;DHT22;7242;50.858;6.586;2022-12-10T02:23:11;1.10;99.90
14317;DHT22;7242;50.858;6.586;2022-12-10T02:26:26;1.10;99.90
14317;DHT22;7242;50.858;6.586;2022-12-10T02:29:30;1.10;99.90
14317;DHT22;7242;50.858;6.586;2022-12-10T02:32:35;1.10;99.90
14317;DHT22;7242;50.858;6.586;2022-12-10T02:38:41;1.00;99.90
14317;DHT22;7242;50.858;6.586;2022-12-10T02:47:56;1.00;99.90
14317;DHT22;7242;50.858;6.586;2022-12-10T02:51:00;0.70;99.90
14317;DHT22;7242;50.858;6.586;2022-12-10T02:57:14;0.80;99.90
14317;DHT22;7242;50.858;6.586;2022-12-10T03:00:22;0.80;99.90
14317;DHT22;7242;50.858;6.586;2022-12-10T03:06:55;0.70;99.90
14317;DHT22;7242;50.858;6.586;2022-12-10T03:13:11;0.70;99.90
14317;DHT22;7242;50.858;6.586;2022-12-10T03:16:14;0.70;99.90
14317;DHT22;7242;50.858;6.586;2022-12-10T03:19:21;0.60;99.90
14317;DHT22;7242;50.858;6.586;2022-12-10T03:25:27;0.70;99.90
14317;DHT22;7242;50.858;6.586;2022-12-10T03:37:37;0.90;99.90
14317;DHT22;7242;50.858;6.586;2022-12-10T03:46:54;0.80;99.90
14317;DHT22;7242;50.858;6.586;2022-12-10T03:55:57;1.00;99.90
14317;DHT22;7242;50.858;6.586;2022-12-10T03:58:58;1.00;99.90
14317;DHT22;7242;50.858;6.586;2022-12-10T04:05:00;1.10;99.90
14317;DHT22;7242;50.858;6.586;2022-12-10T04:18:45;1.10;99.90
14317;DHT22;7242;50.858;6.586;2022-12-10T04:21:46;1.30;99.90
14317;DHT22;7242;50.858;6.586;2022-12-10T04:31:27;1.50;99.90
14317;DHT22;7242;50.858;6.586;2022-12-10T04:34:28;1.30;99.90
14317;DHT22;7242;50.858;6.586;2022-12-10T04:43:31;1.30;99.90
14317;DHT22;7242;50.858;6.586;2022-12-10T04:49:33;1.60;99.90
14317;DHT22;7242;50.858;6.586;2022-12-10T05:01:38;1.80;99.90
14317;DHT22;7242;50.858;6.586;2022-12-10T05:04:39;1.60;99.90
14317;DHT22;7242;50.858;6.586;2022-12-10T05:13:43;1.60;99.90
14317;DHT22;7242;50.858;6.586;2022-12-10T05:26:21;1.60;99.90
14317;DHT22;7242;50.858;6.586;2022-12-10T05:29:22;1.70;99.90
14317;DHT22;7242;50.858;6.586;2022-12-10T05:32:22;1.40;99.90
14317;DHT22;7242;50.858;6.586;2022-12-10T05:41:29;1.60;99.90
14317;DHT22;7242;50.858;6.586;2022-12-10T06:02:39;1.40;99.90
14317;DHT22;7242;50.858;6.586;2022-12-10T06:11:43;1.50;99.90
14317;DHT22;7242;50.858;6.586;2022-12-10T06:29:52;2.00;99.90
14317;DHT22;7242;50.858;6.586;2022-12-10T06:35:54;1.50;99.90
14317;DHT22;7242;50.858;6.586;2022-12-10T06:41:56;2.00;99.90
14317;DHT22;7242;50.858;6.586;2022-12-10T06:47:58;1.80;99.90
14317;DHT22;7242;50.858;6.586;2022-12-10T06:50:59;1.80;99.90
14317;DHT22;7242;50.858;6.586;2022-12-10T07:00:04;1.60;99.90
14317;DHT22;7242;50.858;6.586;2022-12-10T07:06:07;1.90;99.90
14317;DHT22;7242;50.858;6.586;2022-12-10T07:21:19;2.00;99.90
14317;DHT22;7242;50.858;6.586;2022-12-10T07:27:22;2.00;99.90
14317;DHT22;7242;50.858;6.586;2022-12-10T07:39:26;2.00;99.90
14317;DHT22;7242;50.858;6.586;2022-12-10T07:45:28;2.10;99.90
14317;DHT22;7242;50.858;6.586;2022-12-10T07:51:31;1.80;99.90
14317;DHT22;7242;50.858;6.586;2022-12-10T08:16:41;2.30;99.90
14317;DHT22;7242;50.858;6.586;2022-12-10T08:22:44;2.20;99.90
14317;DHT22;7242;50.858;6.586;2022-12-10T08:28:47;2.10;99.90
14317;DHT22;7242;50.858;6.586;2022-12-10T08:31:49;2.00;99.90
14317;DHT22;7242;50.858;6.586;2022-12-10T08:37:51;2.20;99.90
14317;DHT22;7242;50.858;6.586;2022-12-10T08:52:57;2.30;99.90
14317;DHT22;7242;50.858;6.586;2022-12-10T09:02:01;2.30;99.90
14317;DHT22;7242;50.858;6.586;2022-12-10T09:11:13;2.50;99.90
14317;DHT22;7242;50.858;6.586;2022-12-10T09:20:17;2.80;99.90
14317;DHT22;7242;50.858;6.586;2022-12-10T09:32:22;2.90;99.90
14317;DHT22;7242;50.858;6.586;2022-12-10T09:35:23;2.90;99.90
14317;DHT22;7242;50.858;6.586;2022-12-10T09:41:40;3.20;99.90
14317;DHT22;7242;50.858;6.586;2022-12-10T09:48:21;3.40;99.90
14317;DHT22;7242;50.858;6.586;2022-12-10T09:51:29;3.20;99.90
14317;DHT22;7242;50.858;6.586;2022-12-10T09:55:16;3.40;99.90
14317;DHT22;7242;50.858;6.586;2022-12-10T09:57:52;3.50;99.90
14317;DHT22;7242;50.858;6.586;2022-12-10T10:01:04;3.40;99.90
14317;DHT22;7242;50.858;6.586;2022-12-10T10:04:05;3.10;99.90
14317;DHT22;7242;50.858;6.586;2022-12-10T10:07:06;3.40;99.90
14317;DHT22;7242;50.858;6.586;2022-12-10T10:10:23;3.40;99.90
14317;DHT22;7242;50.858;6.586;2022-12-10T10:17:16;3.40;99.90
14317;DHT22;7242;50.858;6.586;2022-12-10T10:23:21;3.40;99.90
14317;DHT22;7242;50.858;6.586;2022-12-10T10:26:25;3.30;99.90
14317;DHT22;7242;50.858;6.586;2022-12-10T10:29:26;3.50;99.90
14317;DHT22;7242;50.858;6.586;2022-12-10T10:35:56;3.20;99.90
14317;DHT22;7242;50.858;6.586;2022-12-10T10:42:09;3.20;99.90
14317;DHT22;7242;50.858;6.586;2022-12-10T10:45:42;3.10;99.90
14317;DHT22;7242;50.858;6.586;2022-12-10T10:48:44;3.20;99.90
14317;DHT22;7242;50.858;6.586;2022-12-10T10:51:46;3.00;99.90
14317;DHT22;7242;50.858;6.586;2022-12-10T10:54:47;3.00;99.90
14317;DHT22;7242;50.858;6.586;2022-12-10T10:57:51;3.00;99.90
14317;DHT22;7242;50.858;6.586;2022-12-10T11:01:08;2.90;99.90
14317;DHT22;7242;50.858;6.586;2022-12-10T11:07:26;3.00;99.90
14317;DHT22;7242;50.858;6.586;2022-12-10T11:13:35;3.20;99.90
14317;DHT22;7242;50.858;6.586;2022-12-10T11:16:38;3.50;99.90
14317;DHT22;7242;50.858;6.586;2022-12-10T11:19:59;3.40;99.90
14317;DHT22;7242;50.858;6.586;2022-12-10T11:23:03;3.40;99.90
14317;DHT22;7242;50.858;6.586;2022-12-10T11:29:46;3.60;99.90
14317;DHT22;7242;50.858;6.586;2022-12-10T11:33:15;3.40;99.90
14317;DHT22;7242;50.858;6.586;2022-12-10T11:36:35;3.80;99.90
14317;DHT22;7242;50.858;6.586;2022-12-10T11:50:20;3.50;99.90
14317;DHT22;7242;50.858;6.586;2022-12-10T11:56:48;3.50;99.90
14317;DHT22;7242;50.858;6.586;2022-12-10T12:13:09;3.40;99.90
14317;DHT22;7242;50.858;6.586;2022-12-10T12:16:15;3.50;99.90
14317;DHT22;7242;50.858;6.586;2022-12-10T12:19:24;3.50;99.90
14317;DHT22;7242;50.858;6.586;2022-12-10T12:22:35;3.40;99.90
14317;DHT22;7242;50.858;6.586;2022-12-10T12:25:41;3.50;99.90
14317;DHT22;7242;50.858;6.586;2022-12-10T12:28:52;3.30;99.90
14317;DHT22;7242;50.858;6.586;2022-12-10T12:32:25;3.30;99.90
14317;DHT22;7242;50.858;6.586;2022-12-10T12:35:36;3.10;99.90
14317;DHT22;7242;50.858;6.586;2022-12-10T12:42:27;2.80;99.90
14317;DHT22;7242;50.858;6.586;2022-12-10T12:55:34;4.80;99.90
14317;DHT22;7242;50.858;6.586;2022-12-10T13:01:54;3.40;99.90
14317;DHT22;7242;50.858;6.586;2022-12-10T13:11:33;3.50;99.90
14317;DHT22;7242;50.858;6.586;2022-12-10T13:14:53;3.40;99.90
14317;DHT22;7242;50.858;6.586;2022-12-10T13:21:29;3.70;99.90
14317;DHT22;7242;50.858;6.586;2022-12-10T13:28:22;3.50;99.90
14317;DHT22;7242;50.858;6.586;2022-12-10T13:31:33;3.50;99.90
14317;DHT22;7242;50.858;6.586;2022-12-10T13:41:05;3.60;99.90
14317;DHT22;7242;50.858;6.586;2022-12-10T13:50:48;3.70;99.90
14317;DHT22;7242;50.858;6.586;2022-12-10T14:00:44;3.60;99.90
14317;DHT22;7242;50.858;6.586;2022-12-10T14:07:19;3.60;99.90
14317;DHT22;7242;50.858;6.586;2022-12-10T14:10:31;3.70;99.90
14317;DHT22;7242;50.858;6.586;2022-12-10T14:13:42;3.80;99.90
14317;DHT22;7242;50.858;6.586;2022-12-10T14:16:45;3.70;99.90
14317;DHT22;7242;50.858;6.586;2022-12-10T14:19:47;3.70;99.90
14317;DHT22;7242;50.858;6.586;2022-12-10T14:22:52;3.60;99.90
14317;DHT22;7242;50.858;6.586;2022-12-10T14:29:02;3.80;99.90
14317;DHT22;7242;50.858;6.586;2022-12-10T14:32:14;3.70;99.90
14317;DHT22;7242;50.858;6.586;2022-12-10T14:35:20;3.70;99.90
14317;DHT22;7242;50.858;6.586;2022-12-10T14:38:29;3.70;99.90
14317;DHT22;7242;50.858;6.586;2022-12-10T14:44:35;3.40;99.90
14317;DHT22;7242;50.858;6.586;2022-12-10T14:47:38;3.30;99.90
14317;DHT22;7242;50.858;6.586;2022-12-10T14:53:41;3.00;99.90
14317;DHT22;7242;50.858;6.586;2022-12-10T14:59:49;2.80;99.90
14317;DHT22;7242;50.858;6.586;2022-12-10T15:06:02;2.60;99.90
14317;DHT22;7242;50.858;6.586;2022-12-10T15:09:16;2.50;99.90
14317;DHT22;7242;50.858;6.586;2022-12-10T15:15:33;2.50;99.90
14317;DHT22;7242;50.858;6.586;2022-12-10T15:18:38;2.40;99.90
14317;DHT22;7242;50.858;6.586;2022-12-10T15:28:19;2.50;99.90
14317;DHT22;7242;50.858;6.586;2022-12-10T15:31:30;2.50;99.90
14317;DHT22;7242;50.858;6.586;2022-12-10T15:35:21;2.40;99.90
14317;DHT22;7242;50.858;6.586;2022-12-10T15:41:31;2.40;99.90
14317;DHT22;7242;50.858;6.586;2022-12-10T15:47:39;2.60;99.90
14317;DHT22;7242;50.858;6.586;2022-12-10T15:53:43;2.50;99.90
14317;DHT22;7242;50.858;6.586;2022-12-10T15:59:47;2.50;99.90
14317;DHT22;7242;50.858;6.586;2022-12-10T16:02:56;2.60;99.90
14317;DHT22;7242;50.858;6.586;2022-12-10T16:08:58;2.60;99.90
14317;DHT22;7242;50.858;6.586;2022-12-10T16:11:59;2.40;99.90
14317;DHT22;7242;50.858;6.586;2022-12-10T16:15:00;2.30;99.90
14317;DHT22;7242;50.858;6.586;2022-12-10T16:21:07;2.50;99.90
14317;DHT22;7242;50.858;6.586;2022-12-10T16:27:14;2.50;99.90
14317;DHT22;7242;50.858;6.586;2022-12-10T16:33:22;2.50;99.90
14317;DHT22;7242;50.858;6.586;2022-12-10T16:39:24;2.40;99.90
14317;DHT22;7242;50.858;6.586;2022-12-10T16:48:32;2.20;99.90
14317;DHT22;7242;50.858;6.586;2022-12-10T17:00:45;2.20;99.90
14317;DHT22;7242;50.858;6.586;2022-12-10T17:03:48;5.00;99.90
14317;DHT22;7242;50.858;6.586;2022-12-10T17:12:51;2.30;99.90
14317;DHT22;7242;50.858;6.586;2022-12-10T17:24:56;2.20;99.90
14317;DHT22;7242;50.858;6.586;2022-12-10T17:30:58;2.30;99.90
14317;DHT22;7242;50.858;6.586;2022-12-10T17:40:19;2.20;99.90
14317;DHT22;7242;50.858;6.586;2022-12-10T17:43:20;2.00;99.90
14317;DHT22;7242;50.858;6.586;2022-12-10T18:04:31;2.40;99.90
14317;DHT22;7242;50.858;6.586;2022-12-10T18:10:34;2.10;99.90
14317;DHT22;7242;50.858;6.586;2022-12-10T18:25:41;2.10;99.90
14317;DHT22;7242;50.858;6.586;2022-12-10T18:31:44;2.40;99.90
14317;DHT22;7242;50.858;6.586;2022-12-10T18:37:46;2.40;99.90
14317;DHT22;7242;50.858;6.586;2022-12-10T18:43:48;2.20;99.90
14317;DHT22;7242;50.858;6.586;2022-12-10T18:46:51;2.20;99.90
14317;DHT22;7242;50.858;6.586;2022-12-10T18:52:54;2.00;99.90
14317;DHT22;7242;50.858;6.586;2022-12-10T18:55:55;2.20;99.90
14317;DHT22;7242;50.858;6.586;2022-12-10T18:58:56;2.30;99.90
14317;DHT22;7242;50.858;6.586;2022-12-10T19:20:28;2.40;99.90
14317;DHT22;7242;50.858;6.586;2022-12-10T19:29:33;2.40;99.90
14317;DHT22;7242;50.858;6.586;2022-12-10T19:56:44;2.20;99.90
14317;DHT22;7242;50.858;6.586;2022-12-10T20:02:47;2.30;99.90
14317;DHT22;7242;50.858;6.586;2022-12-10T20:05:47;2.30;99.90
14317;DHT22;7242;50.858;6.586;2022-12-10T20:11:50;2.10;99.90
14317;DHT22;7242;50.858;6.586;2022-12-10T20:17:53;2.50;99.90
14317;DHT22;7242;50.858;6.586;2022-12-10T20:23:55;2.60;99.90
14317;DHT22;7242;50.858;6.586;2022-12-10T20:26:58;2.10;99.90
14317;DHT22;7242;50.858;6.586;2022-12-10T20:29:59;2.20;99.90
14317;DHT22;7242;50.858;6.586;2022-12-10T20:32:59;2.50;99.90
14317;DHT22;7242;50.858;6.586;2022-12-10T20:39:03;2.20;99.90
14317;DHT22;7242;50.858;6.586;2022-12-10T20:42:04;2.60;99.90
14317;DHT22;7242;50.858;6.586;2022-12-10T20:45:05;2.40;99.90
14317;DHT22;7242;50.858;6.586;2022-12-10T20:48:07;2.50;99.90
14317;DHT22;7242;50.858;6.586;2022-12-10T20:51:09;2.40;99.90
14317;DHT22;7242;50.858;6.586;2022-12-10T20:57:11;2.40;99.90
14317;DHT22;7242;50.858;6.586;2022-12-10T21:00:17;2.50;99.90
14317;DHT22;7242;50.858;6.586;2022-12-10T21:06:24;2.50;99.90
14317;DHT22;7242;50.858;6.586;2022-12-10T21:24:31;2.90;99.90
14317;DHT22;7242;50.858;6.586;2022-12-10T21:36:36;2.70;99.90
14317;DHT22;7242;50.858;6.586;2022-12-10T21:46:07;2.50;99.90
14317;DHT22;7242;50.858;6.586;2022-12-10T21:52:10;2.70;99.90
14317;DHT22;7242;50.858;6.586;2022-12-10T22:04:14;2.60;99.90
14317;DHT22;7242;50.858;6.586;2022-12-10T22:07:15;2.70;99.90
14317;DHT22;7242;50.858;6.586;2022-12-10T22:10:17;2.50;99.90
14317;DHT22;7242;50.858;6.586;2022-12-10T22:16:19;2.70;99.90
14317;DHT22;7242;50.858;6.586;2022-12-10T22:19:24;2.60;99.90
14317;DHT22;7242;50.858;6.586;2022-12-10T22:22:25;2.70;99.90
14317;DHT22;7242;50.858;6.586;2022-12-10T22:34:30;2.80;99.90
14317;DHT22;7242;50.858;6.586;2022-12-10T22:37:32;2.90;99.90
14317;DHT22;7242;50.858;6.586;2022-12-10T22:49:36;2.80;99.90
14317;DHT22;7242;50.858;6.586;2022-12-10T23:01:41;2.60;99.90
14317;DHT22;7242;50.858;6.586;2022-12-10T23:16:47;2.70;99.90
14317;DHT22;7242;50.858;6.586;2022-12-10T23:47:00;2.20;99.90
14317;DHT22;7242;50.858;6.586;2022-12-10T23:50:01;2.40;99.90
14317;DHT22;7242;50.858;6.586;2022-12-10T23:53:03;2.60;99.90
14317;DHT22;7242;50.858;6.586;2022-12-10T23:56:13;2.30;99.90
